KJXN

Jackson County-Reynolds Field Airport

Jackson, Michigan, USA
METAR KJXN 241256Z 23004KT 10SM CLR 19/14 A3025 RMK AO2 SLP240 T01940139
Observed Flight Rules
May-24 @ 12:56 UTC (60 minutes ago) Visual Flight Rules
Wind Visibility Clouds
230° at 4 knots 10 miles
  • Clear skies
Temperatures Readings
Current 19°C / 66°F
Dewpoint 14°C / 57°F
Humidity 73%
Altimeter 30.25" Hg
Pressure 1024 hPa
Elevation 305
METAR KJXN 241256Z 23004KT 10SM CLR 19/14 A3025 RMK AO2 SLP240 T01940139
Observed Flight Rules
May-24 @ 12:56 UTC
(60 minutes ago)
VFR
Wind Visibility
230° at 4 knots 10 miles
Clouds
  • Clear skies
Temperature Dewpoint
19°C / 66°F 14°C / 57°F
Humidity Altimeter Pressure
73% 30.25" Hg 1024 hPa